createdAt,value
2023-11-15T00:01:13.662Z,99945.06
2023-11-15T00:03:40.666Z,99945.00
2023-11-15T00:06:08.299Z,99946.97
2023-11-15T00:08:35.376Z,99946.88
2023-11-15T00:11:05.208Z,99958.81
2023-11-15T00:13:32.158Z,99956.91
2023-11-15T00:15:59.200Z,99970.09
2023-11-15T00:18:26.284Z,99969.00
2023-11-15T00:20:53.338Z,99972.19
2023-11-15T00:23:20.178Z,99980.59
2023-11-15T00:25:47.025Z,99985.44
2023-11-15T00:28:14.317Z,99992.75
2023-11-15T00:30:41.190Z,99990.84
2023-11-15T00:33:08.732Z,100009.16
2023-11-15T00:35:35.710Z,100005.13
2023-11-15T00:38:04.804Z,100019.66
2023-11-15T00:40:31.718Z,100019.09
2023-11-15T00:42:58.679Z,100021.38
2023-11-15T00:45:25.648Z,100016.44
2023-11-15T00:47:52.866Z,100035.56
2023-11-15T00:50:19.963Z,100030.50
2023-11-15T00:52:47.029Z,100032.06
2023-11-15T00:55:14.089Z,100045.88
2023-11-15T00:57:41.333Z,100055.03
2023-11-15T01:00:24.591Z,100062.22
2023-11-15T01:02:52.706Z,100054.38
2023-11-15T01:05:19.797Z,100059.53
2023-11-15T01:07:46.609Z,100058.38
2023-11-15T01:10:13.996Z,100054.66
2023-11-15T01:12:42.419Z,100056.72
2023-11-15T01:15:09.984Z,100060.94
2023-11-15T01:17:37.166Z,100058.38
2023-11-15T01:20:04.878Z,100068.38
2023-11-15T01:22:32.046Z,100066.97
2023-11-15T01:24:59.511Z,100077.44
2023-11-15T01:27:26.770Z,100067.50
2023-11-15T01:29:54.379Z,100079.88
2023-11-15T01:32:21.266Z,100068.88
2023-11-15T01:34:48.219Z,100070.75
2023-11-15T01:37:15.402Z,100084.75
2023-11-15T01:39:43.306Z,100078.81
2023-11-15T01:42:11.122Z,100090.66
2023-11-15T01:44:38.723Z,100085.25
2023-11-15T01:47:06.194Z,100093.97
2023-11-15T01:49:33.370Z,100100.47
2023-11-15T01:52:00.256Z,100099.63
2023-11-15T01:54:29.455Z,100111.38
2023-11-15T01:56:57.042Z,100116.25
2023-11-15T01:59:24.293Z,100116.25
2023-11-15T02:01:52.888Z,100116.25
2023-11-15T02:04:20.590Z,100123.25
2023-11-15T02:06:47.586Z,100138.91
2023-11-15T02:09:15.806Z,100137.06
2023-11-15T02:11:42.951Z,100149.88
2023-11-15T02:14:11.081Z,100143.44
2023-11-15T02:16:38.277Z,100147.22
2023-11-15T02:19:05.512Z,100152.06
2023-11-15T02:21:53.138Z,100160.22
2023-11-15T02:24:20.186Z,100163.97
2023-11-15T02:26:47.989Z,100171.31
2023-11-15T02:29:14.780Z,100180.81
2023-11-15T02:31:41.617Z,100167.22
2023-11-15T02:34:08.434Z,100192.34
2023-11-15T02:36:35.268Z,100182.34
2023-11-15T02:39:02.518Z,100191.28
2023-11-15T02:41:29.415Z,100203.34
2023-11-15T02:43:56.936Z,100200.38
2023-11-15T02:46:24.326Z,100198.50
2023-11-15T02:48:52.141Z,100204.19
2023-11-15T02:51:19.500Z,100199.31
2023-11-15T02:53:46.529Z,100204.44
2023-11-15T02:56:13.445Z,100199.41
2023-11-15T02:58:40.267Z,100207.69
2023-11-15T03:01:12.499Z,100208.50
2023-11-15T03:03:41.051Z,100219.53
2023-11-15T03:06:08.522Z,100217.56
2023-11-15T03:08:37.270Z,100219.28
2023-11-15T03:11:04.344Z,100209.63
2023-11-15T03:13:31.155Z,100224.91
2023-11-15T03:15:58.078Z,100210.84
2023-11-15T03:18:25.115Z,100218.47
2023-11-15T03:20:52.536Z,100228.63
2023-11-15T03:23:20.973Z,100229.63
2023-11-15T03:25:47.930Z,100240.78
2023-11-15T03:28:14.778Z,100237.94
2023-11-15T03:30:41.584Z,100239.78
2023-11-15T03:33:08.630Z,100240.66
2023-11-15T03:35:36.155Z,100246.31
2023-11-15T03:38:03.261Z,100259.38
2023-11-15T03:40:30.102Z,100256.09
2023-11-15T03:42:56.911Z,100264.22
2023-11-15T03:45:23.663Z,100267.47
2023-11-15T03:47:51.674Z,100257.25
2023-11-15T03:50:21.926Z,100265.84
2023-11-15T03:52:48.895Z,100274.06
2023-11-15T03:55:15.933Z,100282.69
2023-11-15T03:57:43.951Z,100292.66
2023-11-15T04:00:11.812Z,100289.81
2023-11-15T04:02:41.990Z,100292.25
2023-11-15T04:05:10.759Z,100290.88
2023-11-15T04:07:38.581Z,100299.91
2023-11-15T04:10:06.833Z,100304.09
2023-11-15T04:12:34.590Z,100293.72
2023-11-15T04:15:01.782Z,100295.28
2023-11-15T04:17:31.610Z,100299.44
2023-11-15T04:19:58.502Z,100298.53
2023-11-15T04:22:25.400Z,100298.41
2023-11-15T04:24:53.786Z,100307.91
2023-11-15T04:27:20.613Z,100307.09
2023-11-15T04:29:47.613Z,100319.56
2023-11-15T04:32:14.746Z,100315.91
2023-11-15T04:34:41.476Z,100326.66
2023-11-15T04:37:10.524Z,100330.81
2023-11-15T04:39:37.422Z,100332.19
2023-11-15T04:42:05.311Z,100329.34
2023-11-15T04:44:32.224Z,100334.56
2023-11-15T04:46:59.181Z,100332.31
2023-11-15T04:49:26.086Z,100326.22
2023-11-15T04:51:52.939Z,100336.50
2023-11-15T04:54:20.045Z,100342.75
2023-11-15T04:56:47.077Z,100341.41
2023-11-15T04:59:14.042Z,100350.66
2023-11-15T05:01:42.992Z,100351.19
2023-11-15T05:04:10.100Z,100354.78
2023-11-15T05:06:36.968Z,100360.25
2023-11-15T05:09:04.361Z,100349.72
2023-11-15T05:11:31.168Z,100362.69
2023-11-15T05:13:58.105Z,100351.47
2023-11-15T05:16:25.336Z,100361.44
2023-11-15T05:18:52.407Z,100360.16
2023-11-15T05:21:19.716Z,100362.25
2023-11-15T05:23:46.583Z,100358.53
2023-11-15T05:26:13.401Z,100361.13
2023-11-15T05:28:40.404Z,100352.56
2023-11-15T05:31:07.167Z,100359.00
2023-11-15T05:33:34.062Z,100358.53
2023-11-15T05:36:00.878Z,100375.72
2023-11-15T05:38:29.040Z,100375.66
2023-11-15T05:40:56.112Z,100376.31
2023-11-15T05:43:23.315Z,100378.91
2023-11-15T05:45:50.494Z,100377.84
2023-11-15T05:48:17.346Z,100380.53
2023-11-15T05:50:44.302Z,100385.53
2023-11-15T05:53:11.611Z,100387.06
2023-11-15T05:55:41.905Z,100383.16
2023-11-15T05:58:08.902Z,100391.81
2023-11-15T06:00:35.579Z,100388.69
2023-11-15T06:03:02.629Z,100405.81
2023-11-15T06:05:30.884Z,100398.81
2023-11-15T06:07:57.669Z,100399.81
2023-11-15T06:10:28.094Z,100407.63
2023-11-15T06:12:57.933Z,100406.72
2023-11-15T06:15:25.464Z,100403.31
2023-11-15T06:17:53.295Z,100409.88
2023-11-15T06:20:20.304Z,100412.91
2023-11-15T06:22:48.059Z,100414.66
2023-11-15T06:25:20.345Z,100415.25
2023-11-15T06:27:47.834Z,100415.09
2023-11-15T06:30:15.089Z,100426.28
2023-11-15T06:32:42.151Z,100422.22
2023-11-15T06:35:10.082Z,100424.75
2023-11-15T06:37:37.303Z,100430.38
2023-11-15T06:40:09.288Z,100431.59
2023-11-15T06:42:37.130Z,100439.69
2023-11-15T06:45:05.116Z,100439.59
2023-11-15T06:47:36.808Z,100438.31
2023-11-15T06:50:13.933Z,100440.50
2023-11-15T06:52:44.024Z,100449.38
2023-11-15T06:55:11.912Z,100451.66
2023-11-15T06:57:42.884Z,100449.88
2023-11-15T07:00:12.827Z,100454.28
2023-11-15T07:02:43.025Z,100460.72
2023-11-15T07:05:12.124Z,100469.75
2023-11-15T07:07:39.545Z,100468.72
2023-11-15T07:10:07.764Z,100468.00
2023-11-15T07:12:37.802Z,100484.38
2023-11-15T07:15:05.642Z,100480.94
2023-11-15T07:17:33.257Z,100490.31
2023-11-15T07:20:00.617Z,100492.34
2023-11-15T07:22:27.560Z,100487.56
2023-11-15T07:24:54.689Z,100494.56
2023-11-15T07:27:25.284Z,100502.81
2023-11-15T07:29:53.305Z,100494.75
2023-11-15T07:32:20.257Z,100498.59
2023-11-15T07:34:47.252Z,100500.13
2023-11-15T07:37:14.212Z,100499.59
2023-11-15T07:39:42.268Z,100502.22
2023-11-15T07:42:09.229Z,100498.03
2023-11-15T07:44:37.309Z,100502.97
2023-11-15T07:47:07.671Z,100499.38
2023-11-15T07:49:34.999Z,100514.44
2023-11-15T07:52:01.938Z,100520.91
2023-11-15T07:54:28.941Z,100527.84
2023-11-15T07:56:58.375Z,100528.47
2023-11-15T07:59:26.352Z,100524.00
2023-11-15T08:01:53.915Z,100535.03
2023-11-15T08:04:22.524Z,100538.72
2023-11-15T08:06:50.297Z,100540.09
2023-11-15T08:09:27.456Z,100541.72
2023-11-15T08:11:58.061Z,100540.41
2023-11-15T08:14:26.975Z,100552.69
2023-11-15T08:16:55.806Z,100562.53
2023-11-15T08:19:23.031Z,100554.81
2023-11-15T08:21:50.222Z,100567.19
2023-11-15T08:24:23.938Z,100562.63
2023-11-15T08:26:54.389Z,100564.69
2023-11-15T08:29:22.277Z,100578.00
2023-11-15T08:31:50.446Z,100574.53
2023-11-15T08:34:22.157Z,100568.97
2023-11-15T08:36:50.417Z,100576.19
2023-11-15T08:39:17.997Z,100574.22
2023-11-15T08:41:48.054Z,100577.63
2023-11-15T08:44:19.298Z,100576.31
2023-11-15T08:46:46.790Z,100578.28
2023-11-15T08:49:16.457Z,100575.59
2023-11-15T08:51:46.230Z,100571.28
2023-11-15T08:54:13.573Z,100557.38
2023-11-15T08:56:43.476Z,100568.72
2023-11-15T08:59:15.849Z,100583.56
2023-11-15T09:01:45.598Z,100579.69
2023-11-15T09:04:19.775Z,100587.09
2023-11-15T09:06:49.906Z,100590.09
2023-11-15T09:09:17.897Z,100583.84
2023-11-15T09:11:46.089Z,100581.31
2023-11-15T09:14:15.512Z,100586.44
2023-11-15T09:16:43.118Z,100583.94
2023-11-15T09:19:16.729Z,100586.06
2023-11-15T09:21:44.086Z,100581.50
2023-11-15T09:24:11.486Z,100589.03
2023-11-15T09:26:39.854Z,100592.56
2023-11-15T09:29:06.742Z,100609.03
2023-11-15T09:31:35.344Z,100608.28
2023-11-15T09:34:02.349Z,100608.28
2023-11-15T09:36:30.070Z,100612.34
2023-11-15T09:38:57.378Z,100614.69
2023-11-15T09:41:25.883Z,100620.03
2023-11-15T09:43:56.289Z,100618.47
2023-11-15T09:46:23.364Z,100622.06
2023-11-15T09:48:57.527Z,100614.63
2023-11-15T09:51:35.485Z,100629.75
2023-11-15T09:54:16.125Z,100629.13
2023-11-15T09:56:47.199Z,100625.94
2023-11-15T09:59:15.820Z,100621.50
2023-11-15T10:01:49.572Z,100627.03
2023-11-15T10:04:29.586Z,100625.19
2023-11-15T10:07:05.837Z,100627.88
2023-11-15T10:09:43.964Z,100630.00
2023-11-15T10:12:11.745Z,100621.28
2023-11-15T10:14:55.625Z,100622.22
2023-11-15T10:17:39.916Z,100626.81
2023-11-15T10:20:22.193Z,100624.91
2023-11-15T10:22:52.188Z,100624.19
2023-11-15T10:25:19.337Z,100622.41
2023-11-15T10:27:48.065Z,100625.63
2023-11-15T10:30:21.511Z,100634.91
2023-11-15T10:32:50.965Z,100641.13
2023-11-15T10:35:28.728Z,100628.31
2023-11-15T10:37:57.071Z,100643.84
2023-11-15T10:40:27.042Z,100636.69
2023-11-15T10:42:56.238Z,100646.97
2023-11-15T10:45:31.333Z,100638.72
2023-11-15T10:48:02.880Z,100636.41
2023-11-15T10:50:32.854Z,100638.03
2023-11-15T10:53:02.505Z,100635.72
2023-11-15T10:55:31.051Z,100643.22
2023-11-15T10:58:03.485Z,100641.75
2023-11-15T11:00:36.104Z,100637.44
2023-11-15T11:03:03.302Z,100640.72
2023-11-15T11:05:31.151Z,100638.22
2023-11-15T11:08:15.596Z,100648.75
2023-11-15T11:10:57.661Z,100644.97
2023-11-15T11:13:24.986Z,100633.38
2023-11-15T11:15:53.113Z,100637.22
2023-11-15T11:18:20.845Z,100634.94
2023-11-15T11:21:03.542Z,100629.25
2023-11-15T11:23:34.809Z,100632.56
2023-11-15T11:26:36.952Z,100619.81
2023-11-15T11:29:05.087Z,100622.56
2023-11-15T11:31:31.933Z,100615.78
2023-11-15T11:34:15.960Z,100616.09
2023-11-15T11:36:51.918Z,100620.88
2023-11-15T11:39:41.095Z,100640.44
2023-11-15T11:42:24.420Z,100646.91
2023-11-15T11:44:55.774Z,100645.78
2023-11-15T11:47:22.897Z,100647.31
2023-11-15T11:49:50.229Z,100644.41
2023-11-15T11:52:21.059Z,100640.88
2023-11-15T11:54:54.404Z,100641.16
2023-11-15T11:57:25.605Z,100627.16
2023-11-15T12:00:02.446Z,100621.22
2023-11-15T12:02:37.004Z,100620.03
2023-11-15T12:05:06.615Z,100618.69
2023-11-15T12:07:34.206Z,100616.56
2023-11-15T12:10:07.437Z,100617.31
2023-11-15T12:12:34.160Z,100617.56
2023-11-15T12:15:01.083Z,100619.44
2023-11-15T12:17:42.891Z,100624.66
2023-11-15T12:20:11.894Z,100627.28
2023-11-15T12:22:41.617Z,100619.63
2023-11-15T12:25:09.757Z,100620.47
2023-11-15T12:27:39.922Z,100621.53
2023-11-15T12:30:08.676Z,100624.31
2023-11-15T12:32:37.699Z,100625.53
2023-11-15T12:35:10.254Z,100617.13
2023-11-15T12:37:37.913Z,100611.50
2023-11-15T12:40:21.515Z,100620.72
2023-11-15T12:42:57.713Z,100608.97
2023-11-15T12:45:35.230Z,100605.44
2023-11-15T12:48:08.620Z,100606.91
2023-11-15T12:50:39.940Z,100605.63
2023-11-15T12:53:18.317Z,100603.41
2023-11-15T12:55:54.486Z,100598.72
2023-11-15T12:58:33.956Z,100601.13
2023-11-15T13:01:03.750Z,100594.66
2023-11-15T13:03:34.315Z,100598.69
2023-11-15T13:06:12.323Z,100609.16
2023-11-15T13:08:40.406Z,100606.59
2023-11-15T13:11:07.282Z,100599.56
2023-11-15T13:13:34.241Z,100604.81
2023-11-15T13:16:01.044Z,100602.19
2023-11-15T13:18:28.001Z,100604.09
2023-11-15T13:20:58.932Z,100607.38
2023-11-15T13:23:26.522Z,100606.69
2023-11-15T13:25:54.834Z,100603.50
2023-11-15T13:28:22.450Z,100613.34
2023-11-15T13:30:49.472Z,100610.66
2023-11-15T13:33:19.109Z,100607.66
2023-11-15T13:35:46.807Z,100617.81
2023-11-15T13:38:14.158Z,100621.84
2023-11-15T13:40:46.116Z,100619.66
2023-11-15T13:43:13.307Z,100621.28
2023-11-15T13:45:40.115Z,100613.75
2023-11-15T13:48:07.065Z,100622.50
2023-11-15T13:50:33.920Z,100627.47
2023-11-15T13:53:01.528Z,100627.22
2023-11-15T13:55:29.132Z,100640.56
2023-11-15T13:57:56.335Z,100640.91
2023-11-15T14:00:29.369Z,100648.59
2023-11-15T14:02:56.298Z,100643.53
2023-11-15T14:05:23.265Z,100643.59
2023-11-15T14:07:53.253Z,100649.31
2023-11-15T14:10:20.423Z,100646.50
2023-11-15T14:12:48.082Z,100646.41
2023-11-15T14:15:20.072Z,100643.00
2023-11-15T14:17:49.803Z,100645.22
2023-11-15T14:20:21.034Z,100650.94
2023-11-15T14:22:48.601Z,100653.66
2023-11-15T14:25:22.399Z,100668.66
2023-11-15T14:27:57.290Z,100669.91
2023-11-15T14:30:25.485Z,100667.69
2023-11-15T14:32:52.836Z,100677.91
2023-11-15T14:35:20.320Z,100684.06
2023-11-15T14:37:49.680Z,100696.72
2023-11-15T14:40:23.892Z,100677.53
2023-11-15T14:42:53.545Z,100698.22
2023-11-15T14:45:21.016Z,100699.47
2023-11-15T14:47:48.234Z,100691.53
2023-11-15T14:50:16.533Z,100702.47
2023-11-15T14:52:56.535Z,100700.44
2023-11-15T14:55:32.714Z,100702.81
2023-11-15T14:58:00.711Z,100705.28
2023-11-15T15:00:28.068Z,100706.84
2023-11-15T15:02:57.682Z,100707.41
2023-11-15T15:05:25.277Z,100712.06
2023-11-15T15:07:52.487Z,100706.84
2023-11-15T15:10:20.966Z,100710.59
2023-11-15T15:12:49.141Z,100713.31
2023-11-15T15:15:19.116Z,100712.31
2023-11-15T15:17:47.622Z,100717.78
2023-11-15T15:20:20.114Z,100714.84
2023-11-15T15:22:47.941Z,100715.41
2023-11-15T15:25:15.915Z,100714.78
2023-11-15T15:27:43.303Z,100721.88
2023-11-15T15:30:14.746Z,100726.53
2023-11-15T15:32:42.512Z,100739.59
2023-11-15T15:35:13.240Z,100729.69
2023-11-15T15:37:41.203Z,100726.28
2023-11-15T15:40:15.481Z,100732.63
2023-11-15T15:42:44.134Z,100739.41
2023-11-15T15:45:12.578Z,100743.97
2023-11-15T15:47:39.534Z,100743.94
2023-11-15T15:50:06.870Z,100746.41
2023-11-15T15:52:33.638Z,100750.00
2023-11-15T15:55:00.718Z,100752.63
2023-11-15T15:57:27.825Z,100751.75
2023-11-15T15:59:54.750Z,100752.22
2023-11-15T16:02:21.592Z,100751.06
2023-11-15T16:04:48.526Z,100747.41
2023-11-15T16:07:15.628Z,100755.25
2023-11-15T16:09:42.679Z,100756.22
2023-11-15T16:12:09.853Z,100761.84
2023-11-15T16:14:37.035Z,100764.97
2023-11-15T16:17:04.151Z,100757.53
2023-11-15T16:19:31.650Z,100764.88
2023-11-15T16:21:58.736Z,100759.50
2023-11-15T16:24:26.097Z,100756.31
2023-11-15T16:26:53.007Z,100765.94
2023-11-15T16:29:20.666Z,100765.97
2023-11-15T16:31:48.138Z,100760.44
2023-11-15T16:34:16.485Z,100756.34
2023-11-15T16:36:44.895Z,100762.94
2023-11-15T16:39:12.557Z,100768.66
2023-11-15T16:41:51.796Z,100772.88
2023-11-15T16:44:20.336Z,100769.25
2023-11-15T16:46:48.681Z,100784.81
2023-11-15T16:49:17.488Z,100784.72
2023-11-15T16:51:46.777Z,100786.59
2023-11-15T16:54:17.092Z,100795.97
2023-11-15T16:56:47.818Z,100792.22
2023-11-15T16:59:18.007Z,100798.16
2023-11-15T17:01:45.600Z,100804.47
2023-11-15T17:04:14.684Z,100815.72
2023-11-15T17:06:42.486Z,100815.94
2023-11-15T17:09:11.537Z,100816.28
2023-11-15T17:11:39.948Z,100816.09
2023-11-15T17:14:08.296Z,100815.94
2023-11-15T17:16:36.628Z,100814.66
2023-11-15T17:19:03.781Z,100826.38
2023-11-15T17:21:31.136Z,100839.94
2023-11-15T17:23:58.823Z,100840.06
2023-11-15T17:26:27.863Z,100848.13
2023-11-15T17:28:55.064Z,100841.69
2023-11-15T17:31:25.872Z,100843.44
2023-11-15T17:33:53.237Z,100841.91
2023-11-15T17:36:21.068Z,100846.47
2023-11-15T17:38:47.911Z,100839.44
2023-11-15T17:41:18.499Z,100845.88
2023-11-15T17:43:45.502Z,100840.63
2023-11-15T17:46:14.611Z,100844.00
2023-11-15T17:48:43.712Z,100845.16
2023-11-15T17:51:11.676Z,100837.72
2023-11-15T17:53:38.706Z,100836.66
2023-11-15T17:56:06.249Z,100846.69
2023-11-15T17:58:36.376Z,100843.53
2023-11-15T18:01:06.766Z,100850.09
2023-11-15T18:03:40.315Z,100846.94
2023-11-15T18:06:12.732Z,100849.63
2023-11-15T18:08:40.768Z,100851.94
2023-11-15T18:11:10.754Z,100842.72
2023-11-15T18:13:39.265Z,100850.78
2023-11-15T18:16:12.440Z,100854.88
2023-11-15T18:18:40.220Z,100848.91
2023-11-15T18:21:09.047Z,100848.44
2023-11-15T18:23:37.317Z,100847.03
2023-11-15T18:26:05.687Z,100847.50
2023-11-15T18:28:33.093Z,100841.31
2023-11-15T18:31:14.758Z,100846.69
2023-11-15T18:33:44.694Z,100835.34
2023-11-15T18:36:13.714Z,100844.25
2023-11-15T18:38:52.323Z,100841.44
2023-11-15T18:41:20.495Z,100841.31
2023-11-15T18:43:50.725Z,100841.44
2023-11-15T18:46:18.404Z,100842.13
2023-11-15T18:48:49.134Z,100843.31
2023-11-15T18:51:24.046Z,100840.50
2023-11-15T18:53:51.635Z,100828.56
2023-11-15T18:56:22.502Z,100835.59
2023-11-15T18:58:51.901Z,100829.59
2023-11-15T19:01:32.540Z,100842.13
2023-11-15T19:04:02.583Z,100837.09
2023-11-15T19:06:34.101Z,100829.97
2023-11-15T19:09:07.156Z,100834.53
2023-11-15T19:11:38.933Z,100833.00
2023-11-15T19:14:08.710Z,100830.31
2023-11-15T19:16:36.206Z,100833.25
2023-11-15T19:19:03.602Z,100829.84
2023-11-15T19:21:30.889Z,100825.16
2023-11-15T19:24:01.594Z,100827.19
2023-11-15T19:26:29.977Z,100833.72
2023-11-15T19:28:57.025Z,100825.41
2023-11-15T19:31:25.486Z,100820.53
2023-11-15T19:33:55.499Z,100832.56
2023-11-15T19:36:23.034Z,100818.16
2023-11-15T19:38:49.985Z,100823.56
2023-11-15T19:41:20.561Z,100823.69
2023-11-15T19:43:47.736Z,100821.22
2023-11-15T19:46:21.085Z,100826.13
2023-11-15T19:48:48.948Z,100821.00
2023-11-15T19:51:36.939Z,100824.75
2023-11-15T19:54:09.655Z,100828.25
2023-11-15T19:56:38.413Z,100826.25
2023-11-15T19:59:06.272Z,100827.88
2023-11-15T20:01:33.327Z,100828.09
2023-11-15T20:04:06.590Z,100817.59
2023-11-15T20:06:34.033Z,100822.63
2023-11-15T20:09:01.302Z,100821.69
2023-11-15T20:11:30.622Z,100825.78
2023-11-15T20:13:58.582Z,100826.94
2023-11-15T20:16:26.789Z,100824.50
2023-11-15T20:18:57.536Z,100816.66
2023-11-15T20:21:24.808Z,100821.91
2023-11-15T20:23:53.897Z,100834.41
2023-11-15T20:26:22.375Z,100826.72
2023-11-15T20:28:53.209Z,100832.91
2023-11-15T20:31:22.665Z,100828.59
2023-11-15T20:33:53.734Z,100829.06
2023-11-15T20:36:21.271Z,100824.38
2023-11-15T20:38:48.413Z,100817.97
2023-11-15T20:41:16.205Z,100832.09
2023-11-15T20:43:43.342Z,100826.38
2023-11-15T20:46:17.645Z,100823.78
2023-11-15T20:48:47.789Z,100815.38
2023-11-15T20:51:15.842Z,100809.66
2023-11-15T20:53:43.001Z,100810.91
2023-11-15T20:56:10.156Z,100813.16
2023-11-15T20:58:39.122Z,100813.25
2023-11-15T21:01:07.769Z,100818.41
2023-11-15T21:03:36.105Z,100826.84
2023-11-15T21:06:05.226Z,100818.78
2023-11-15T21:08:33.445Z,100820.84
2023-11-15T21:11:02.975Z,100823.69
2023-11-15T21:13:30.055Z,100819.47
2023-11-15T21:15:57.064Z,100827.53
2023-11-15T21:18:26.661Z,100831.88
2023-11-15T21:20:53.501Z,100840.97
2023-11-15T21:23:20.595Z,100841.56
2023-11-15T21:25:47.437Z,100839.81
2023-11-15T21:28:14.346Z,100836.78
2023-11-15T21:30:41.233Z,100836.31
2023-11-15T21:33:11.128Z,100834.19
2023-11-15T21:35:41.208Z,100832.22
2023-11-15T21:38:08.978Z,100825.66
2023-11-15T21:40:36.473Z,100839.56
2023-11-15T21:43:04.540Z,100807.53
2023-11-15T21:45:31.492Z,100809.28
2023-11-15T21:47:58.470Z,100804.03
2023-11-15T21:50:25.751Z,100811.28
2023-11-15T21:52:54.747Z,100809.31
2023-11-15T21:55:21.726Z,100801.69
2023-11-15T21:57:48.899Z,100816.66
2023-11-15T22:00:17.287Z,100815.28
2023-11-15T22:02:44.520Z,100815.25
2023-11-15T22:05:11.850Z,100810.94
2023-11-15T22:07:42.403Z,100811.03
2023-11-15T22:10:10.845Z,100808.94
2023-11-15T22:12:37.801Z,100814.91
2023-11-15T22:15:05.165Z,100819.22
2023-11-15T22:17:33.632Z,100813.75
2023-11-15T22:20:00.534Z,100805.56
2023-11-15T22:22:27.306Z,100795.16
2023-11-15T22:24:54.175Z,100795.50
2023-11-15T22:27:21.064Z,100805.78
2023-11-15T22:29:48.059Z,100799.22
2023-11-15T22:32:14.926Z,100802.72
2023-11-15T22:34:41.994Z,100800.88
2023-11-15T22:37:09.881Z,100804.13
2023-11-15T22:39:36.861Z,100797.03
2023-11-15T22:42:04.616Z,100791.63
2023-11-15T22:44:31.468Z,100788.59
2023-11-15T22:46:58.207Z,100784.97
2023-11-15T22:49:25.331Z,100792.81
2023-11-15T22:51:52.386Z,100801.69
2023-11-15T22:54:19.682Z,100796.91
2023-11-15T22:56:47.232Z,100800.88
2023-11-15T22:59:14.204Z,100795.38
2023-11-15T23:01:41.319Z,100793.38
2023-11-15T23:04:09.178Z,100787.19
2023-11-15T23:06:36.431Z,100782.19
2023-11-15T23:09:03.381Z,100784.53
2023-11-15T23:11:31.659Z,100789.41
2023-11-15T23:13:58.474Z,100774.09
2023-11-15T23:16:25.867Z,100774.44
2023-11-15T23:18:52.972Z,100778.91
2023-11-15T23:21:19.932Z,100776.44
2023-11-15T23:23:46.978Z,100779.16
2023-11-15T23:26:13.821Z,100788.59
2023-11-15T23:28:41.003Z,100778.78
2023-11-15T23:31:08.201Z,100789.91
2023-11-15T23:33:36.666Z,100791.41
2023-11-15T23:36:04.900Z,100804.16
2023-11-15T23:38:31.814Z,100798.53
2023-11-15T23:40:59.293Z,100798.41
2023-11-15T23:43:29.671Z,100807.19
2023-11-15T23:45:58.527Z,100800.38
2023-11-15T23:48:25.809Z,100806.13
2023-11-15T23:50:54.950Z,100798.88
2023-11-15T23:53:22.830Z,100801.34
2023-11-15T23:55:51.106Z,100797.72
2023-11-15T23:58:19.894Z,100800.88
